KBVI

Beaver County Airport

Beaver Falls, Pennsylvania, USA
KBVI 201720Z 2018/2118 32009G16KT P6SM SKC FM202300 35005KT P6SM SKC
Issued Valid From Valid To
Apr-20 @ 17:20 UTC
(an hour ago)
Apr-20 @ 18:00 UTC
(35 minutes ago)
Apr-21 @ 18:00 UTC
(in 23 hours)
Apr-20 @ 18:00 to Apr-20 @ 23:00
KBVI 201720Z 2018/2118 32009G16KT P6SM SKC
Wind Visibility Clouds
320° at 9 knots
 Gusting to 16 knots
Greater than 6 miles
  • Clear skies
From Apr-20 @ 23:00 to Apr-21 @ 18:00
FM202300 35005KT P6SM SKC
Wind Visibility Clouds
350° at 5 knots Greater than 6 miles
  • Clear skies
KBVI 201720Z 2018/2118 32009G16KT P6SM SKC FM202300 35005KT P6SM SKC
Issued Apr-20 @ 17:20 UTC
(an hour ago)
Valid From Apr-20 @ 18:00 UTC
(35 minutes ago)
Valid To Apr-21 @ 18:00 UTC
(in 23 hours)
Apr-20 @ 18:00 - Apr-20 @ 23:00
Wind Visibility
320° at 9 knots
 Gusting to 16 knots
Greater than 6 miles
Clouds
  • Clear skies
From Apr-20 @ 23:00 - Apr-21 @ 18:00
Wind Visibility
350° at 5 knots Greater than 6 miles
Clouds
  • Clear skies